createdAt,value
2018-04-08T00:01:29.030Z,62.53
2018-04-08T00:03:54.766Z,63.96
2018-04-08T00:06:20.514Z,64.77
2018-04-08T00:08:46.281Z,65.70
2018-04-08T00:11:12.038Z,64.62
2018-04-08T00:13:37.772Z,66.46
2018-04-08T00:16:03.526Z,67.28
2018-04-08T00:18:29.262Z,68.05
2018-04-08T00:20:54.989Z,68.71
2018-04-08T00:23:20.739Z,68.76
2018-04-08T00:25:46.519Z,69.10
2018-04-08T00:28:12.259Z,68.25
2018-04-08T00:30:37.990Z,69.16
2018-04-08T00:33:03.734Z,69.08
2018-04-08T00:35:29.468Z,68.50
2018-04-08T00:37:55.214Z,68.73
2018-04-08T00:40:20.953Z,69.41
2018-04-08T00:42:46.707Z,69.32
2018-04-08T00:45:12.458Z,69.29
2018-04-08T00:47:38.210Z,69.59
2018-04-08T00:50:03.965Z,70.00
2018-04-08T00:52:29.712Z,70.07
2018-04-08T00:54:55.470Z,68.74
2018-04-08T00:57:21.217Z,68.46
2018-04-08T00:59:46.961Z,67.59
2018-04-08T01:02:12.711Z,67.30
2018-04-08T01:04:38.442Z,68.21
2018-04-08T01:07:04.202Z,67.54
2018-04-08T01:09:29.921Z,68.29
2018-04-08T01:11:55.650Z,67.49
2018-04-08T01:14:21.376Z,67.15
2018-04-08T01:16:47.126Z,66.85
2018-04-08T01:19:12.853Z,66.88
2018-04-08T01:21:38.602Z,67.94
2018-04-08T01:24:04.336Z,68.02
2018-04-08T01:26:30.066Z,68.11
2018-04-08T01:28:55.798Z,69.00
2018-04-08T01:31:21.545Z,69.07
2018-04-08T01:33:47.299Z,69.72
2018-04-08T01:36:13.057Z,68.51
2018-04-08T01:38:38.794Z,69.82
2018-04-08T01:41:04.531Z,69.78
2018-04-08T01:43:30.268Z,68.67
2018-04-08T01:45:56.004Z,68.90
2018-04-08T01:48:21.756Z,68.79
2018-04-08T01:50:47.491Z,68.30
2018-04-08T01:53:13.238Z,68.33
2018-04-08T01:55:38.984Z,69.19
2018-04-08T01:58:04.730Z,69.16
2018-04-08T02:00:30.459Z,70.60
2018-04-08T02:02:56.190Z,70.50
2018-04-08T02:05:21.937Z,71.18
2018-04-08T02:07:47.695Z,73.30
2018-04-08T02:10:13.413Z,73.61
2018-04-08T02:12:39.142Z,73.01
2018-04-08T02:15:04.874Z,72.38
2018-04-08T02:17:30.621Z,73.09
2018-04-08T02:19:56.352Z,72.95
2018-04-08T02:22:22.085Z,74.38
2018-04-08T02:24:47.814Z,74.89
2018-04-08T02:27:13.574Z,75.17
2018-04-08T02:29:39.311Z,73.48
2018-04-08T02:32:05.067Z,72.69
2018-04-08T02:34:30.801Z,72.32
2018-04-08T02:36:56.560Z,71.74
2018-04-08T02:39:22.316Z,72.54
2018-04-08T02:41:48.074Z,72.15
2018-04-08T02:44:13.805Z,71.87
2018-04-08T02:46:39.557Z,71.59
2018-04-08T02:49:05.307Z,71.77
2018-04-08T02:51:31.040Z,71.77
2018-04-08T02:53:56.807Z,71.92
2018-04-08T02:56:22.545Z,72.71
2018-04-08T02:58:48.290Z,72.60
2018-04-08T03:01:14.030Z,72.62
2018-04-08T03:03:39.787Z,71.97
2018-04-08T03:06:05.557Z,72.16
2018-04-08T03:08:31.307Z,72.88
2018-04-08T03:10:57.050Z,72.91
2018-04-08T03:13:22.806Z,72.81
2018-04-08T03:15:48.558Z,73.04
2018-04-08T03:18:14.308Z,72.83
2018-04-08T03:20:40.068Z,72.41
2018-04-08T03:23:05.814Z,72.45
2018-04-08T03:25:31.560Z,73.11
2018-04-08T03:27:57.309Z,73.24
2018-04-08T03:30:23.038Z,73.91
2018-04-08T03:32:48.790Z,73.64
2018-04-08T03:35:14.522Z,72.70
2018-04-08T03:37:40.267Z,72.43
2018-04-08T03:40:05.989Z,71.85
2018-04-08T03:42:31.734Z,71.57
2018-04-08T03:44:57.465Z,72.00
2018-04-08T03:47:23.228Z,72.19
2018-04-08T03:49:48.994Z,72.49
2018-04-08T03:52:14.739Z,72.71
2018-04-08T03:54:40.513Z,73.00
2018-04-08T03:57:06.313Z,73.89
2018-04-08T03:59:32.075Z,73.44
2018-04-08T04:01:57.827Z,74.24
2018-04-08T04:04:23.587Z,73.90
2018-04-08T04:06:49.340Z,74.27
2018-04-08T04:09:15.088Z,73.28
2018-04-08T04:11:40.826Z,74.18
2018-04-08T04:14:06.581Z,74.69
2018-04-08T04:16:32.342Z,74.31
2018-04-08T04:19:10.433Z,73.83
2018-04-08T04:21:48.590Z,73.95
2018-04-08T04:24:26.650Z,73.79
2018-04-08T04:26:52.390Z,73.82
2018-04-08T04:29:18.165Z,73.33
2018-04-08T04:31:43.919Z,73.18
2018-04-08T04:34:09.670Z,73.51
2018-04-08T04:36:35.426Z,75.20
2018-04-08T04:39:01.170Z,75.90
2018-04-08T04:41:26.910Z,77.09
2018-04-08T04:43:52.661Z,78.06
2018-04-08T04:46:18.402Z,77.72
2018-04-08T04:48:44.158Z,77.78
2018-04-08T04:51:09.899Z,78.84
2018-04-08T04:53:35.674Z,79.06
2018-04-08T04:56:01.434Z,77.55
2018-04-08T04:58:27.181Z,77.22
2018-04-08T05:00:52.926Z,77.80
2018-04-08T05:03:18.698Z,77.73
2018-04-08T05:05:44.448Z,77.69
2018-04-08T05:08:10.192Z,77.08
2018-04-08T05:10:35.953Z,77.54
2018-04-08T05:13:01.689Z,78.20
2018-04-08T05:15:27.428Z,77.66
2018-04-08T05:17:53.160Z,77.03
2018-04-08T05:20:18.909Z,76.51
2018-04-08T05:22:44.671Z,76.06
2018-04-08T05:25:10.417Z,75.53
2018-04-08T05:27:36.146Z,74.94
2018-04-08T05:30:01.890Z,74.17
2018-04-08T05:32:27.631Z,74.06
2018-04-08T05:34:53.381Z,73.65
2018-04-08T05:37:19.132Z,73.59
2018-04-08T05:39:44.894Z,73.81
2018-04-08T05:42:10.637Z,73.68
2018-04-08T05:44:36.373Z,73.47
2018-04-08T05:47:02.117Z,73.71
2018-04-08T05:49:27.873Z,73.04
2018-04-08T05:51:53.633Z,72.96
2018-04-08T05:54:19.402Z,72.50
2018-04-08T05:56:45.146Z,73.10
2018-04-08T05:59:10.881Z,72.37
2018-04-08T06:01:36.630Z,71.99
2018-04-08T06:04:02.391Z,71.68
2018-04-08T06:06:28.149Z,71.03
2018-04-08T06:08:53.902Z,69.61
2018-04-08T06:11:19.634Z,69.63
2018-04-08T06:13:45.365Z,68.90
2018-04-08T06:16:11.125Z,68.54
2018-04-08T06:18:36.872Z,68.41
2018-04-08T06:21:02.622Z,67.79
2018-04-08T06:23:28.362Z,67.64
2018-04-08T06:25:54.118Z,68.28
2018-04-08T06:28:19.854Z,68.99
2018-04-08T06:30:45.613Z,67.94
2018-04-08T06:33:11.354Z,66.75
2018-04-08T06:35:37.134Z,66.63
2018-04-08T06:38:02.908Z,66.70
2018-04-08T06:40:28.660Z,66.81
2018-04-08T06:42:54.401Z,64.32
2018-04-08T06:45:20.142Z,64.05
2018-04-08T06:47:45.902Z,63.55
2018-04-08T06:50:11.675Z,63.60
2018-04-08T06:52:37.442Z,63.75
2018-04-08T06:55:03.202Z,62.47
2018-04-08T06:57:28.936Z,62.89
2018-04-08T06:59:54.681Z,63.32
2018-04-08T07:02:20.421Z,62.56
2018-04-08T07:04:46.174Z,62.53
2018-04-08T07:07:11.927Z,62.40
2018-04-08T07:09:37.702Z,62.26
2018-04-08T07:12:03.487Z,61.18
2018-04-08T07:14:29.202Z,61.19
2018-04-08T07:16:54.942Z,62.05
2018-04-08T07:19:20.681Z,60.76
2018-04-08T07:21:46.425Z,61.30
2018-04-08T07:24:12.162Z,61.97
2018-04-08T07:26:37.906Z,60.05
2018-04-08T07:29:03.634Z,60.08
2018-04-08T07:31:29.375Z,59.62
2018-04-08T07:33:55.104Z,59.33
2018-04-08T07:36:20.842Z,57.80
2018-04-08T07:38:46.575Z,58.00
2018-04-08T07:41:12.319Z,58.11
2018-04-08T07:43:38.047Z,57.78
2018-04-08T07:46:03.796Z,56.52
2018-04-08T07:48:29.533Z,57.63
2018-04-08T07:50:55.284Z,56.91
2018-04-08T07:53:21.038Z,57.50
2018-04-08T07:55:46.784Z,55.39
2018-04-08T07:58:12.510Z,54.38
2018-04-08T08:00:38.249Z,54.85
2018-04-08T08:03:03.984Z,54.55
2018-04-08T08:05:29.722Z,54.55
2018-04-08T08:07:55.453Z,53.00
2018-04-08T08:10:21.186Z,51.73
2018-04-08T08:12:46.905Z,52.30
2018-04-08T08:15:12.658Z,53.35
2018-04-08T08:17:38.394Z,53.60
2018-04-08T08:20:04.146Z,53.42
2018-04-08T08:22:29.894Z,52.19
2018-04-08T08:24:55.621Z,52.38
2018-04-08T08:27:21.376Z,52.03
2018-04-08T08:29:47.150Z,49.78
2018-04-08T08:32:12.899Z,50.35
2018-04-08T08:34:38.637Z,51.01
2018-04-08T08:37:04.391Z,51.31
2018-04-08T08:39:30.122Z,50.76
2018-04-08T08:41:55.876Z,50.30
2018-04-08T08:44:21.599Z,50.38
2018-04-08T08:46:47.350Z,51.54
2018-04-08T08:49:13.130Z,50.14
2018-04-08T08:51:38.853Z,49.73
2018-04-08T08:54:04.596Z,49.49
2018-04-08T08:56:30.341Z,49.32
2018-04-08T08:58:56.109Z,48.49
2018-04-08T09:01:21.858Z,49.09
2018-04-08T09:03:47.607Z,50.00
2018-04-08T09:06:13.364Z,48.58
2018-04-08T09:08:39.102Z,49.55
2018-04-08T09:11:04.848Z,49.68
2018-04-08T09:13:30.589Z,49.21
2018-04-08T09:15:56.344Z,48.47
2018-04-08T09:18:22.122Z,48.62
2018-04-08T09:20:47.886Z,48.16
2018-04-08T09:23:13.631Z,47.37
2018-04-08T09:25:39.382Z,46.61
2018-04-08T09:28:05.270Z,46.48
2018-04-08T09:30:31.026Z,47.78
2018-04-08T09:32:57.566Z,47.56
2018-04-08T09:35:23.310Z,47.03
2018-04-08T09:37:49.561Z,45.07
2018-04-08T09:40:15.333Z,45.84
2018-04-08T09:42:41.127Z,44.99
2018-04-08T09:45:06.878Z,44.58
2018-04-08T09:47:32.646Z,45.31
2018-04-08T09:49:58.392Z,44.50
2018-04-08T09:52:24.152Z,45.58
2018-04-08T09:54:50.072Z,45.82
2018-04-08T09:57:16.235Z,44.25
2018-04-08T09:59:41.997Z,44.13
2018-04-08T10:02:13.946Z,43.55
2018-04-08T10:04:39.699Z,44.24
2018-04-08T10:07:05.484Z,43.86
2018-04-08T10:09:32.047Z,44.15
2018-04-08T10:11:57.813Z,43.73
2018-04-08T10:14:23.560Z,43.97
2018-04-08T10:16:49.325Z,43.55
2018-04-08T10:19:15.074Z,43.49
2018-04-08T10:21:40.849Z,42.41
2018-04-08T10:24:06.603Z,44.06
2018-04-08T10:26:32.337Z,40.84
2018-04-08T10:28:58.147Z,42.15
2018-04-08T10:31:23.905Z,42.61
2018-04-08T10:33:49.685Z,42.54
2018-04-08T10:36:15.440Z,43.80
2018-04-08T10:38:41.201Z,43.95
2018-04-08T10:41:06.972Z,41.36
2018-04-08T10:43:32.728Z,42.31
2018-04-08T10:45:58.517Z,43.44
2018-04-08T10:48:24.289Z,39.63
2018-04-08T10:50:50.044Z,39.54
2018-04-08T10:53:15.795Z,39.50
2018-04-08T10:55:41.550Z,37.60
2018-04-08T10:58:07.339Z,38.59
2018-04-08T11:00:33.077Z,37.95
2018-04-08T11:02:58.836Z,37.95
2018-04-08T11:05:24.578Z,35.57
2018-04-08T11:07:50.336Z,35.61
2018-04-08T11:10:16.131Z,35.84
2018-04-08T11:12:41.849Z,35.34
2018-04-08T11:15:07.596Z,36.54
2018-04-08T11:17:33.353Z,35.25
2018-04-08T11:19:59.082Z,35.84
2018-04-08T11:22:24.864Z,35.01
2018-04-08T11:24:50.621Z,35.52
2018-04-08T11:27:16.380Z,35.31
2018-04-08T11:29:42.150Z,35.82
2018-04-08T11:32:07.881Z,36.98
2018-04-08T11:34:34.572Z,36.75
2018-04-08T11:37:00.315Z,33.63
2018-04-08T11:39:26.076Z,34.58
2018-04-08T11:41:51.816Z,34.89
2018-04-08T11:44:17.578Z,33.63
2018-04-08T11:46:43.330Z,33.72
2018-04-08T11:49:09.086Z,33.93
2018-04-08T11:51:34.853Z,33.27
2018-04-08T11:54:00.601Z,33.73
2018-04-08T11:56:26.356Z,33.95
2018-04-08T11:58:52.135Z,33.87
2018-04-08T12:01:17.875Z,32.42
2018-04-08T12:03:43.641Z,33.51
2018-04-08T12:06:09.378Z,32.52
2018-04-08T12:08:35.145Z,32.00
2018-04-08T12:11:00.887Z,32.03
2018-04-08T12:13:26.625Z,31.94
2018-04-08T12:15:52.394Z,31.61
2018-04-08T12:18:18.145Z,32.28
2018-04-08T12:20:43.942Z,31.65
2018-04-08T12:23:09.680Z,33.68
2018-04-08T12:25:35.440Z,32.50
2018-04-08T12:28:01.206Z,32.20
2018-04-08T12:30:26.974Z,31.72
2018-04-08T12:32:52.729Z,32.00
2018-04-08T12:35:18.500Z,30.49
2018-04-08T12:37:44.230Z,30.59
2018-04-08T12:40:09.987Z,31.65
2018-04-08T12:42:35.722Z,30.98
2018-04-08T12:45:01.473Z,30.88
2018-04-08T12:47:27.223Z,30.77
2018-04-08T12:49:52.968Z,30.10
2018-04-08T12:52:18.695Z,30.11
2018-04-08T12:54:44.526Z,31.67
2018-04-08T12:57:10.351Z,27.90
2018-04-08T12:59:36.122Z,28.94
2018-04-08T13:02:01.874Z,29.54
2018-04-08T13:04:27.683Z,30.04
2018-04-08T13:06:53.438Z,31.03
2018-04-08T13:09:19.183Z,29.48
2018-04-08T13:11:44.959Z,30.00
2018-04-08T13:14:10.772Z,28.95
2018-04-08T13:16:36.505Z,29.46
2018-04-08T13:19:02.266Z,30.28
2018-04-08T13:21:28.031Z,29.49
2018-04-08T13:23:53.774Z,29.75
2018-04-08T13:26:19.526Z,28.21
2018-04-08T13:28:45.265Z,28.78
2018-04-08T13:31:11.029Z,28.82
2018-04-08T13:33:36.767Z,28.97
2018-04-08T13:36:02.521Z,28.30
2018-04-08T13:38:28.258Z,30.94
2018-04-08T13:40:54.003Z,28.79
2018-04-08T13:43:19.753Z,27.75
2018-04-08T13:45:45.515Z,29.81
2018-04-08T13:48:11.249Z,29.62
2018-04-08T13:50:36.990Z,30.99
2018-04-08T13:53:02.729Z,29.26
2018-04-08T13:55:28.502Z,28.57
2018-04-08T13:57:54.251Z,29.24
2018-04-08T14:00:19.985Z,29.23
2018-04-08T14:02:45.738Z,28.83
2018-04-08T14:05:11.469Z,29.12
2018-04-08T14:07:37.202Z,30.14
2018-04-08T14:10:02.961Z,29.86
2018-04-08T14:12:28.710Z,31.37
2018-04-08T14:14:54.425Z,31.50
2018-04-08T14:17:20.168Z,30.07
2018-04-08T14:19:45.958Z,30.58
2018-04-08T14:22:11.706Z,29.63
2018-04-08T14:24:37.516Z,30.90
2018-04-08T14:27:03.209Z,30.26
2018-04-08T14:29:28.981Z,29.29
2018-04-08T14:31:54.716Z,30.56
2018-04-08T14:34:20.445Z,30.01
2018-04-08T14:36:46.192Z,29.48
2018-04-08T14:39:11.927Z,30.60
2018-04-08T14:41:37.670Z,30.27
2018-04-08T14:44:03.412Z,30.45
2018-04-08T14:46:29.159Z,29.49
2018-04-08T14:48:54.901Z,30.09
2018-04-08T14:51:20.680Z,29.75
2018-04-08T14:53:46.428Z,30.99
2018-04-08T14:56:12.184Z,29.32
2018-04-08T14:58:37.935Z,29.38
2018-04-08T15:01:03.707Z,29.69
2018-04-08T15:03:29.442Z,31.20
2018-04-08T15:05:55.201Z,29.92
2018-04-08T15:08:20.986Z,30.93
2018-04-08T15:10:46.733Z,32.25
2018-04-08T15:13:12.494Z,31.76
2018-04-08T15:15:38.246Z,30.98
2018-04-08T15:18:04.012Z,32.13
2018-04-08T15:20:29.772Z,31.40
2018-04-08T15:22:55.534Z,31.37
2018-04-08T15:25:21.275Z,31.33
2018-04-08T15:27:47.028Z,30.76
2018-04-08T15:30:12.790Z,30.96
2018-04-08T15:32:38.561Z,31.98
2018-04-08T15:35:04.293Z,31.04
2018-04-08T15:37:30.053Z,32.26
2018-04-08T15:39:55.783Z,31.36
2018-04-08T15:42:21.541Z,32.29
2018-04-08T15:44:47.274Z,34.54
2018-04-08T15:47:13.036Z,35.33
2018-04-08T15:49:38.769Z,35.40
2018-04-08T15:52:04.534Z,36.05
2018-04-08T15:54:30.282Z,35.61
2018-04-08T15:56:56.078Z,36.30
2018-04-08T15:59:21.801Z,36.15
2018-04-08T16:01:47.549Z,36.31
2018-04-08T16:04:13.281Z,36.48
2018-04-08T16:06:39.042Z,36.79
2018-04-08T16:09:05.777Z,36.17
2018-04-08T16:11:31.535Z,36.83
2018-04-08T16:13:57.272Z,37.56
2018-04-08T16:16:24.432Z,37.99
2018-04-08T16:18:50.293Z,38.36
2018-04-08T16:21:16.042Z,37.82
2018-04-08T16:23:41.830Z,38.17
2018-04-08T16:26:07.567Z,38.63
2018-04-08T16:28:33.378Z,39.12
2018-04-08T16:30:59.157Z,38.31
2018-04-08T16:33:24.937Z,39.27
2018-04-08T16:35:50.691Z,39.93
2018-04-08T16:38:16.447Z,39.13
2018-04-08T16:40:42.224Z,39.97
2018-04-08T16:43:07.977Z,40.61
2018-04-08T16:45:33.755Z,40.89
2018-04-08T16:47:59.525Z,41.51
2018-04-08T16:50:25.271Z,41.76
2018-04-08T16:52:51.014Z,41.49
2018-04-08T16:55:16.779Z,41.69
2018-04-08T16:57:42.526Z,41.88
2018-04-08T17:00:08.309Z,41.53
2018-04-08T17:02:34.058Z,41.74
2018-04-08T17:04:59.810Z,42.06
2018-04-08T17:07:25.621Z,42.57
2018-04-08T17:09:51.373Z,42.52
2018-04-08T17:12:17.107Z,42.76
2018-04-08T17:14:42.866Z,43.35
2018-04-08T17:17:08.637Z,43.32
2018-04-08T17:19:34.383Z,43.29
2018-04-08T17:22:00.120Z,43.27
2018-04-08T17:24:25.892Z,44.01
2018-04-08T17:26:51.634Z,43.71
2018-04-08T17:29:17.394Z,43.63
2018-04-08T17:31:43.141Z,44.02
2018-04-08T17:34:08.895Z,44.44
2018-04-08T17:36:34.627Z,44.65
2018-04-08T17:39:00.378Z,44.93
2018-04-08T17:41:26.118Z,45.26
2018-04-08T17:43:51.861Z,45.67
2018-04-08T17:46:17.598Z,46.17
2018-04-08T17:48:43.346Z,46.34
2018-04-08T17:51:09.074Z,47.04
2018-04-08T17:53:34.821Z,47.68
2018-04-08T17:56:00.578Z,47.92
2018-04-08T17:58:26.310Z,48.40
2018-04-08T18:00:52.059Z,48.43
2018-04-08T18:03:17.817Z,48.55
2018-04-08T18:05:43.554Z,48.70
2018-04-08T18:08:09.290Z,49.25
2018-04-08T18:10:35.038Z,49.16
2018-04-08T18:13:00.770Z,49.38
2018-04-08T18:15:26.553Z,49.67
2018-04-08T18:17:52.278Z,49.68
2018-04-08T18:20:18.021Z,50.08
2018-04-08T18:22:43.759Z,50.04
2018-04-08T18:25:09.505Z,50.65
2018-04-08T18:27:35.249Z,50.77
2018-04-08T18:30:01.009Z,51.06
2018-04-08T18:32:26.737Z,51.66
2018-04-08T18:34:52.483Z,51.40
2018-04-08T18:37:18.219Z,51.54
2018-04-08T18:39:43.977Z,51.41
2018-04-08T18:42:09.716Z,51.51
2018-04-08T18:44:35.458Z,51.79
2018-04-08T18:47:01.201Z,52.40
2018-04-08T18:49:26.924Z,52.74
2018-04-08T18:51:52.684Z,53.29
2018-04-08T18:54:18.440Z,54.36
2018-04-08T18:56:44.195Z,54.53
2018-04-08T18:59:09.934Z,54.43
2018-04-08T19:01:35.671Z,54.73
2018-04-08T19:04:01.415Z,54.93
2018-04-08T19:06:27.173Z,54.73
2018-04-08T19:08:52.914Z,55.12
2018-04-08T19:11:18.654Z,55.35
2018-04-08T19:13:44.394Z,55.37
2018-04-08T19:16:10.166Z,54.74
2018-04-08T19:18:35.905Z,54.86
2018-04-08T19:21:01.651Z,55.13
2018-04-08T19:23:27.382Z,55.78
2018-04-08T19:25:53.128Z,55.77
2018-04-08T19:28:18.881Z,55.87
2018-04-08T19:30:44.636Z,55.77
2018-04-08T19:33:10.379Z,55.76
2018-04-08T19:35:36.125Z,56.06
2018-04-08T19:38:01.879Z,55.79
2018-04-08T19:40:27.615Z,56.17
2018-04-08T19:42:53.354Z,56.53
2018-04-08T19:45:19.101Z,56.55
2018-04-08T19:47:44.850Z,56.78
2018-04-08T19:50:10.591Z,57.23
2018-04-08T19:52:36.369Z,57.24
2018-04-08T19:55:02.177Z,57.37
2018-04-08T19:57:27.957Z,57.37
2018-04-08T19:59:53.683Z,57.13
2018-04-08T20:02:19.435Z,57.87
2018-04-08T20:04:45.175Z,58.14
2018-04-08T20:07:10.912Z,58.04
2018-04-08T20:09:36.730Z,58.63
2018-04-08T20:12:02.699Z,58.34
2018-04-08T20:14:28.457Z,58.64
2018-04-08T20:16:54.194Z,59.02
2018-04-08T20:19:19.925Z,58.38
2018-04-08T20:21:45.680Z,58.87
2018-04-08T20:24:13.306Z,58.81
2018-04-08T20:26:39.068Z,59.17
2018-04-08T20:29:04.811Z,59.34
2018-04-08T20:31:30.691Z,59.58
2018-04-08T20:33:56.448Z,59.17
2018-04-08T20:36:24.007Z,59.52
2018-04-08T20:38:49.826Z,59.80
2018-04-08T20:41:15.570Z,59.96
2018-04-08T20:43:41.316Z,60.03
2018-04-08T20:46:07.028Z,59.52
2018-04-08T20:48:32.793Z,59.75
2018-04-08T20:50:58.517Z,59.60
2018-04-08T20:53:24.270Z,59.95
2018-04-08T20:55:50.035Z,59.64
2018-04-08T20:58:15.782Z,59.76
2018-04-08T21:00:41.531Z,59.79
2018-04-08T21:03:07.266Z,59.83
2018-04-08T21:05:32.991Z,60.42
2018-04-08T21:07:58.738Z,60.24
2018-04-08T21:10:24.469Z,59.65
2018-04-08T21:12:50.261Z,59.51
2018-04-08T21:15:15.969Z,60.15
2018-04-08T21:17:41.697Z,61.08
2018-04-08T21:20:07.446Z,60.61
2018-04-08T21:22:33.191Z,60.60
2018-04-08T21:24:58.942Z,61.56
2018-04-08T21:27:24.674Z,60.80
2018-04-08T21:29:50.426Z,61.37
2018-04-08T21:32:16.166Z,61.38
2018-04-08T21:34:41.923Z,62.04
2018-04-08T21:37:07.650Z,61.50
2018-04-08T21:39:33.397Z,61.61
2018-04-08T21:41:59.126Z,62.32
2018-04-08T21:44:24.892Z,61.82
2018-04-08T21:46:50.665Z,62.55
2018-04-08T21:49:16.385Z,62.36
2018-04-08T21:51:42.118Z,61.95
2018-04-08T21:54:07.862Z,61.57
2018-04-08T21:56:33.581Z,61.88
2018-04-08T21:58:59.333Z,61.80
2018-04-08T22:01:25.061Z,62.04
2018-04-08T22:03:50.810Z,62.67
2018-04-08T22:06:16.554Z,62.77
2018-04-08T22:08:42.269Z,62.92
2018-04-08T22:11:08.012Z,62.92
2018-04-08T22:13:33.745Z,62.86
2018-04-08T22:15:59.495Z,62.70
2018-04-08T22:18:25.223Z,62.96
2018-04-08T22:20:50.959Z,63.33
2018-04-08T22:23:16.691Z,63.48
2018-04-08T22:25:42.426Z,63.52
2018-04-08T22:28:08.165Z,63.73
2018-04-08T22:30:33.902Z,63.78
2018-04-08T22:32:59.642Z,63.63
2018-04-08T22:35:25.370Z,63.69
2018-04-08T22:37:51.118Z,63.38
2018-04-08T22:40:16.850Z,63.59
2018-04-08T22:42:42.589Z,63.28
2018-04-08T22:45:08.327Z,62.54
2018-04-08T22:47:34.073Z,62.19
2018-04-08T22:49:59.830Z,63.09
2018-04-08T22:52:25.583Z,63.20
2018-04-08T22:54:51.334Z,62.37
2018-04-08T22:57:17.088Z,62.15
2018-04-08T22:59:42.841Z,62.47
2018-04-08T23:02:08.582Z,62.85
2018-04-08T23:04:34.314Z,62.88
2018-04-08T23:07:00.053Z,62.29
2018-04-08T23:09:25.794Z,63.43
2018-04-08T23:11:51.539Z,63.06
2018-04-08T23:14:17.265Z,63.22
2018-04-08T23:16:43.006Z,64.09
2018-04-08T23:19:08.742Z,63.68
2018-04-08T23:21:34.486Z,63.09
2018-04-08T23:24:00.234Z,63.63
2018-04-08T23:26:25.961Z,63.75
2018-04-08T23:28:51.712Z,63.45
2018-04-08T23:31:17.450Z,63.29
2018-04-08T23:33:43.180Z,63.03
2018-04-08T23:36:08.921Z,63.10
2018-04-08T23:38:34.655Z,63.28
2018-04-08T23:41:00.414Z,62.88
2018-04-08T23:43:26.146Z,62.96
2018-04-08T23:45:51.898Z,62.53
2018-04-08T23:48:17.648Z,62.82
2018-04-08T23:50:43.378Z,63.46
2018-04-08T23:53:09.129Z,63.49
2018-04-08T23:55:34.886Z,64.10
2018-04-08T23:58:00.637Z,64.42
